Terminal Aerodrome Forecast
Issued by NWS Paducah, KY

Home | Current Version | Previous Version | Text Only | Print | Product List | Glossary On
Versions: 1 2 3 4 5 6 7 8 9 10 11 12 13 14
322
FTUS43 KPAH 222326
TAFPAH
TAF
KPAH 222326Z 2300/2324 09012G20KT 3SM -RA BR OVC008
     FM230600 06012KT 4SM -SHRA BR SCT008 OVC015
     FM231000 08010KT 5SM -SHRA BR OVC008
     FM231500 09006KT P6SM OVC010 PROB30 2315/2318 6SM -SHRA BR
      OVC008=

USA.gov is the U.S. government's official web portal to all federal, state and local government web resources and services.